Time;durP1;ratioP1;P1;durP2;ratioP2;P2;SDS_P1;SDS_P2;PMS_P1;PMS_P2;Temp;Humidity;BMP_temperature;BMP_pressure;BME280_temperature;BME280_humidity;BME280_pressure;Samples;Min_cycle;Max_cycle;Signal;HPM_P1;HPM_P2
2022/04/24 00:01:46;;;;;;;;;;;14.10;99.90;;;;;;5037291;28;19916;-80
2022/04/24 00:04:12;;;;;;;;;;;14.10;99.90;;;;;;5037014;28;19905;-78
2022/04/24 00:06:39;;;;;;;;;;;14.00;99.90;;;;;;5036954;28;20292;-78
2022/04/24 00:09:05;;;;;;;;;;;13.90;99.90;;;;;;5036796;28;19909;-79
2022/04/24 00:11:31;;;;;;;;;;;13.80;99.90;;;;;;5036675;28;19905;-78
2022/04/24 00:13:56;;;;;;;;;;;13.80;99.90;;;;;;5018800;28;20439;-79
2022/04/24 00:16:22;;;;;;;;;;;13.60;99.90;;;;;;5036704;28;20281;-79
2022/04/24 00:18:48;;;;;;;;;;;13.60;99.90;;;;;;5036591;28;19912;-79
2022/04/24 00:21:13;;;;;;;;;;;13.70;99.90;;;;;;5036511;28;19905;-79
2022/04/24 00:23:39;;;;;;;;;;;13.60;99.90;;;;;;5036944;28;19911;-80
2022/04/24 00:26:04;;;;;;;;;;;13.40;99.90;;;;;;5036672;28;20328;-79
2022/04/24 00:28:30;;;;;;;;;;;13.40;99.90;;;;;;5036726;28;19974;-80
2022/04/24 00:30:56;;;;;;;;;;;13.50;99.90;;;;;;5036505;28;20327;-79
2022/04/24 00:33:21;;;;;;;;;;;13.50;99.90;;;;;;5036269;28;19916;-80
2022/04/24 00:35:47;;;;;;;;;;;13.60;99.90;;;;;;5036063;28;20278;-80
2022/04/24 00:38:13;;;;;;;;;;;13.50;99.90;;;;;;5036603;28;20384;-80
2022/04/24 00:40:38;;;;;;;;;;;13.50;99.90;;;;;;5036180;28;19999;-79
2022/04/24 00:43:04;;;;;;;;;;;13.40;99.90;;;;;;5036185;28;19905;-80
2022/04/24 00:45:29;;;;;;;;;;;13.50;99.90;;;;;;5036105;28;19905;-79
2022/04/24 00:47:56;;;;;;;;;;;13.60;99.90;;;;;;5036078;28;20324;-81
2022/04/24 00:50:22;;;;;;;;;;;13.40;99.90;;;;;;5036303;28;19952;-78
2022/04/24 00:52:48;;;;;;;;;;;13.30;99.90;;;;;;5035918;28;19913;-80
2022/04/24 00:55:13;;;;;;;;;;;13.30;99.90;;;;;;5035977;28;19912;-80
2022/04/24 00:57:42;;;;;;;;;;;13.20;99.90;;;;;;5036062;28;19980;-79
2022/04/24 01:00:08;;;;;;;;;;;13.30;99.90;;;;;;5018041;28;20344;-78
2022/04/24 01:02:33;;;;;;;;;;;13.20;99.90;;;;;;5035897;28;19940;-78
2022/04/24 01:05:00;;;;;;;;;;;13.30;99.90;;;;;;5035847;28;19905;-79
2022/04/24 01:07:25;;;;;;;;;;;13.40;99.90;;;;;;5035681;28;19908;-79
2022/04/24 01:09:51;;;;;;;;;;;13.20;99.90;;;;;;5035776;28;19906;-80
2022/04/24 01:12:16;;;;;;;;;;;13.10;99.90;;;;;;5035509;28;19912;-80
2022/04/24 01:14:42;;;;;;;;;;;13.10;99.90;;;;;;5035833;28;19966;-80
2022/04/24 01:17:08;;;;;;;;;;;13.10;99.90;;;;;;5035623;28;19905;-79
2022/04/24 01:19:33;;;;;;;;;;;13.20;99.90;;;;;;5035474;28;20013;-81
2022/04/24 01:21:59;;;;;;;;;;;13.20;99.90;;;;;;5035870;28;19912;-78
2022/04/24 01:24:26;;;;;;;;;;;13.00;99.90;;;;;;5035369;28;20008;-80
2022/04/24 01:26:52;;;;;;;;;;;13.10;99.90;;;;;;5035464;28;20391;-80
2022/04/24 01:29:17;;;;;;;;;;;13.20;99.90;;;;;;5017781;28;19905;-79
2022/04/24 01:31:44;;;;;;;;;;;13.20;99.90;;;;;;5035337;28;19947;-78
2022/04/24 01:34:10;;;;;;;;;;;13.40;99.90;;;;;;5035120;28;20024;-80
2022/04/24 01:36:36;;;;;;;;;;;13.50;99.90;;;;;;5029157;28;19968;-80
2022/04/24 01:39:02;;;;;;;;;;;13.60;99.90;;;;;;5055263;28;20392;-79
2022/04/24 01:41:28;;;;;;;;;;;13.40;99.90;;;;;;5055024;28;19904;-80
2022/04/24 01:43:54;;;;;;;;;;;13.40;99.90;;;;;;5054973;28;19911;-80
2022/04/24 01:46:20;;;;;;;;;;;13.30;99.90;;;;;;5054976;28;19905;-80
2022/04/24 01:48:46;;;;;;;;;;;13.50;99.90;;;;;;5054875;28;20357;-79
2022/04/24 01:51:14;;;;;;;;;;;13.60;99.90;;;;;;5053328;28;19912;-78
2022/04/24 01:53:40;;;;;;;;;;;13.60;99.90;;;;;;5053183;28;19957;-79
2022/04/24 01:56:06;;;;;;;;;;;13.50;99.90;;;;;;5054672;28;19987;-79
2022/04/24 01:58:32;;;;;;;;;;;13.70;99.90;;;;;;5054775;28;19983;-79
2022/04/24 02:00:58;;;;;;;;;;;13.60;99.90;;;;;;5054784;28;20370;-79
2022/04/24 02:03:24;;;;;;;;;;;13.30;99.90;;;;;;5053309;28;20273;-79
2022/04/24 02:05:50;;;;;;;;;;;13.00;99.90;;;;;;5054513;28;19904;-78
2022/04/24 02:08:16;;;;;;;;;;;12.90;99.90;;;;;;5054882;28;19972;-81
2022/04/24 02:10:41;;;;;;;;;;;13.10;99.90;;;;;;5054653;28;19904;-79
2022/04/24 02:13:07;;;;;;;;;;;13.20;99.90;;;;;;5054372;28;20004;-81
2022/04/24 02:15:33;;;;;;;;;;;13.30;99.90;;;;;;5054328;28;20380;-79
2022/04/24 02:17:59;;;;;;;;;;;13.30;99.90;;;;;;5054750;28;19912;-79
2022/04/24 02:20:25;;;;;;;;;;;13.20;99.90;;;;;;5054293;28;19908;-79
2022/04/24 02:22:51;;;;;;;;;;;13.20;99.90;;;;;;5054333;28;19905;-80
2022/04/24 02:25:17;;;;;;;;;;;13.30;99.90;;;;;;5052924;28;19904;-79
2022/04/24 02:27:43;;;;;;;;;;;13.30;99.90;;;;;;5054174;28;19958;-80
2022/04/24 02:30:09;;;;;;;;;;;13.30;99.90;;;;;;5052825;28;19904;-80
2022/04/24 02:32:35;;;;;;;;;;;13.20;99.90;;;;;;5054005;28;19931;-79
2022/04/24 02:35:00;;;;;;;;;;;13.00;99.90;;;;;;5054247;28;19905;-79
2022/04/24 02:37:26;;;;;;;;;;;13.00;99.90;;;;;;5039374;28;19952;-78
2022/04/24 02:39:52;;;;;;;;;;;13.00;99.90;;;;;;5033956;28;20047;-80
2022/04/24 02:42:18;;;;;;;;;;;13.00;99.90;;;;;;5034315;28;20358;-79
2022/04/24 02:44:43;;;;;;;;;;;13.00;99.90;;;;;;5034089;28;19912;-81
2022/04/24 02:47:09;;;;;;;;;;;12.90;99.90;;;;;;5034032;28;19905;-81
2022/04/24 02:49:34;;;;;;;;;;;12.90;99.90;;;;;;5033866;28;19909;-79
2022/04/24 02:52:00;;;;;;;;;;;12.80;99.90;;;;;;5034310;28;19904;-80
2022/04/24 02:54:26;;;;;;;;;;;12.70;99.90;;;;;;5016074;28;19909;-78
2022/04/24 02:56:51;;;;;;;;;;;12.60;99.90;;;;;;5016094;28;20353;-79
2022/04/24 02:59:17;;;;;;;;;;;12.70;99.90;;;;;;5016105;28;19905;-80
2022/04/24 03:01:43;;;;;;;;;;;12.80;99.90;;;;;;5015969;28;19952;-79
2022/04/24 03:04:08;;;;;;;;;;;12.80;99.90;;;;;;5033175;28;19905;-80
2022/04/24 03:06:34;;;;;;;;;;;12.90;99.90;;;;;;5034075;28;19905;-80
2022/04/24 03:08:59;;;;;;;;;;;13.00;99.90;;;;;;5033701;28;20114;-80
2022/04/24 03:11:25;;;;;;;;;;;13.10;99.90;;;;;;5033554;28;19916;-79
2022/04/24 03:13:51;;;;;;;;;;;13.20;99.90;;;;;;5033505;28;19909;-78
2022/04/24 03:16:17;;;;;;;;;;;13.20;99.90;;;;;;5033813;28;20277;-78
2022/04/24 03:18:42;;;;;;;;;;;13.30;99.90;;;;;;5033703;28;19904;-78
2022/04/24 03:21:08;;;;;;;;;;;13.40;99.90;;;;;;5033549;28;19912;-80
2022/04/24 03:23:33;;;;;;;;;;;13.40;99.90;;;;;;5033506;28;19928;-79
2022/04/24 03:25:59;;;;;;;;;;;13.30;99.90;;;;;;5015830;28;19912;-79
2022/04/24 03:28:24;;;;;;;;;;;13.30;99.90;;;;;;5033673;28;20435;-80
2022/04/24 03:30:50;;;;;;;;;;;13.30;99.90;;;;;;5033800;28;20384;-79
2022/04/24 03:33:15;;;;;;;;;;;13.30;99.90;;;;;;5033580;28;19951;-80
2022/04/24 03:35:41;;;;;;;;;;;13.40;99.90;;;;;;5033363;28;19905;-80
2022/04/24 03:38:07;;;;;;;;;;;13.40;99.90;;;;;;5033401;28;20313;-79
2022/04/24 03:40:33;;;;;;;;;;;13.50;99.90;;;;;;5033793;28;19909;-80
2022/04/24 03:42:59;;;;;;;;;;;13.60;99.90;;;;;;5033664;28;19905;-80
2022/04/24 03:45:24;;;;;;;;;;;13.60;99.90;;;;;;5015664;28;19911;-79
2022/04/24 03:47:51;;;;;;;;;;;13.50;99.90;;;;;;5033348;28;19905;-80
2022/04/24 03:50:18;;;;;;;;;;;13.60;99.90;;;;;;5015565;28;19905;-80
2022/04/24 03:52:44;;;;;;;;;;;13.50;99.90;;;;;;5015532;28;20387;-79
2022/04/24 03:55:10;;;;;;;;;;;13.70;99.90;;;;;;5033208;28;19947;-80
2022/04/24 03:57:35;;;;;;;;;;;13.70;99.90;;;;;;5033371;28;19991;-80
2022/04/24 04:00:01;;;;;;;;;;;13.70;99.90;;;;;;5033186;28;20273;-80
2022/04/24 04:02:27;;;;;;;;;;;13.60;99.90;;;;;;5033156;28;19912;-79
2022/04/24 04:04:52;;;;;;;;;;;13.60;99.90;;;;;;5033389;28;19905;-79
2022/04/24 04:07:18;;;;;;;;;;;13.70;99.90;;;;;;5015418;28;19905;-78
2022/04/24 04:09:44;;;;;;;;;;;13.90;99.90;;;;;;5015283;28;19940;-80
2022/04/24 04:12:10;;;;;;;;;;;13.80;99.90;;;;;;5033123;28;19905;-79
2022/04/24 04:14:36;;;;;;;;;;;13.70;99.90;;;;;;5015518;28;19909;-80
2022/04/24 04:17:02;;;;;;;;;;;13.70;99.90;;;;;;5019248;28;20336;-81
2022/04/24 04:19:28;;;;;;;;;;;13.70;99.90;;;;;;5036696;28;19905;-78
2022/04/24 04:21:53;;;;;;;;;;;13.70;99.90;;;;;;5018869;28;19912;-80
2022/04/24 04:24:19;;;;;;;;;;;13.90;99.90;;;;;;5036699;28;19911;-79
2022/04/24 04:26:44;;;;;;;;;;;13.80;99.90;;;;;;5036491;28;20313;-80
2022/04/24 04:29:11;;;;;;;;;;;14.00;99.90;;;;;;5018677;28;20358;-80
2022/04/24 04:31:37;;;;;;;;;;;13.80;99.90;;;;;;5036944;28;20312;-80
2022/04/24 04:34:02;;;;;;;;;;;13.90;99.90;;;;;;5018594;28;19909;-79
2022/04/24 04:36:29;;;;;;;;;;;13.90;99.90;;;;;;5036189;28;19940;-80
2022/04/24 04:38:54;;;;;;;;;;;13.80;99.90;;;;;;5036303;28;19959;-80
2022/04/24 04:41:20;;;;;;;;;;;13.90;99.90;;;;;;5036288;28;19959;-79
2022/04/24 04:43:45;;;;;;;;;;;13.90;99.90;;;;;;5036221;28;19909;-79
2022/04/24 04:46:11;;;;;;;;;;;13.90;99.90;;;;;;5036211;28;20357;-79
2022/04/24 04:48:37;;;;;;;;;;;13.90;99.90;;;;;;5036672;28;19905;-79
2022/04/24 04:51:02;;;;;;;;;;;13.90;99.90;;;;;;5036061;28;20254;-78
2022/04/24 04:53:28;;;;;;;;;;;13.90;99.90;;;;;;5036187;28;20361;-81
2022/04/24 04:55:53;;;;;;;;;;;13.80;99.90;;;;;;5035974;28;19952;-77
2022/04/24 04:58:19;;;;;;;;;;;13.90;99.90;;;;;;5035964;28;19912;-79
2022/04/24 05:00:45;;;;;;;;;;;14.00;99.90;;;;;;5018193;28;19996;-80
2022/04/24 05:03:10;;;;;;;;;;;14.10;99.90;;;;;;5018113;28;19911;-79
2022/04/24 05:05:36;;;;;;;;;;;14.10;99.90;;;;;;5035800;28;19912;-80
2022/04/24 05:08:02;;;;;;;;;;;14.20;99.90;;;;;;5035787;28;19912;-80
2022/04/24 05:10:27;;;;;;;;;;;14.10;99.90;;;;;;5035720;28;20254;-79
2022/04/24 05:12:53;;;;;;;;;;;14.00;99.90;;;;;;5035560;28;19932;-79
2022/04/24 05:15:21;;;;;;;;;;;14.00;99.90;;;;;;5035630;28;19999;-79
2022/04/24 05:17:47;;;;;;;;;;;14.10;99.90;;;;;;5017836;28;19905;-80
2022/04/24 05:20:12;;;;;;;;;;;14.20;99.90;;;;;;5035545;28;19932;-79
2022/04/24 05:22:39;;;;;;;;;;;14.20;99.90;;;;;;5035506;28;20354;-80
2022/04/24 05:25:06;;;;;;;;;;;14.10;99.90;;;;;;5035651;28;19944;-78
2022/04/24 05:27:32;;;;;;;;;;;14.20;99.90;;;;;;5034526;28;19912;-80
2022/04/24 05:29:58;;;;;;;;;;;14.20;99.90;;;;;;5035316;28;19905;-79
2022/04/24 05:32:23;;;;;;;;;;;14.40;99.90;;;;;;5035233;28;19943;-79
2022/04/24 05:34:49;;;;;;;;;;;14.40;99.90;;;;;;5035142;28;19905;-79
2022/04/24 05:37:14;;;;;;;;;;;14.30;99.90;;;;;;5039676;28;19971;-80
2022/04/24 05:39:40;;;;;;;;;;;14.30;99.90;;;;;;5053795;28;19905;-79
2022/04/24 05:42:06;;;;;;;;;;;14.30;99.90;;;;;;5055091;28;19904;-78
2022/04/24 05:44:31;;;;;;;;;;;14.40;99.90;;;;;;5055114;28;19927;-80
2022/04/24 05:46:57;;;;;;;;;;;14.30;99.90;;;;;;5054974;28;19954;-79
2022/04/24 05:49:22;;;;;;;;;;;14.40;99.90;;;;;;5054931;28;19905;-78
2022/04/24 05:51:48;;;;;;;;;;;14.50;99.90;;;;;;5053662;28;19911;-79
2022/04/24 05:54:15;;;;;;;;;;;14.50;99.90;;;;;;5055070;28;20492;-80
2022/04/24 05:56:41;;;;;;;;;;;14.50;99.90;;;;;;5054891;28;19927;-78
2022/04/24 05:59:08;;;;;;;;;;;14.50;99.90;;;;;;5054844;28;20390;-80
2022/04/24 06:01:34;;;;;;;;;;;14.50;99.90;;;;;;5055072;28;20389;-77
2022/04/24 06:03:59;;;;;;;;;;;14.40;99.90;;;;;;5053405;28;19982;-79
2022/04/24 06:06:26;;;;;;;;;;;14.40;99.90;;;;;;5054582;28;19908;-80
2022/04/24 06:08:52;;;;;;;;;;;14.50;99.90;;;;;;5053009;28;20350;-79
2022/04/24 06:11:19;;;;;;;;;;;14.50;99.90;;;;;;5053152;28;19936;-79
2022/04/24 06:13:45;;;;;;;;;;;14.40;99.90;;;;;;5053121;28;19912;-78
2022/04/24 06:16:11;;;;;;;;;;;14.30;99.90;;;;;;5054448;28;19970;-79
2022/04/24 06:18:36;;;;;;;;;;;14.30;99.90;;;;;;5054472;28;20352;-79
2022/04/24 06:21:02;;;;;;;;;;;14.30;99.90;;;;;;5054320;28;19905;-79
2022/04/24 06:23:30;;;;;;;;;;;14.30;99.90;;;;;;5054285;28;20339;-79
2022/04/24 06:25:57;;;;;;;;;;;14.40;99.90;;;;;;5054237;28;20373;-79
2022/04/24 06:28:22;;;;;;;;;;;14.60;99.90;;;;;;5054555;28;19905;-79
2022/04/24 06:30:48;;;;;;;;;;;14.50;99.90;;;;;;5054420;28;19905;-79
2022/04/24 06:33:14;;;;;;;;;;;14.50;99.90;;;;;;5052803;28;19953;-79
2022/04/24 06:35:41;;;;;;;;;;;14.60;99.90;;;;;;5054058;28;20361;-81
2022/04/24 06:38:07;;;;;;;;;;;14.70;99.90;;;;;;5054408;28;20003;-80
2022/04/24 06:40:32;;;;;;;;;;;14.80;99.90;;;;;;5052728;28;19994;-80
2022/04/24 06:42:59;;;;;;;;;;;14.80;99.90;;;;;;5053991;28;19904;-79
2022/04/24 06:45:29;;;;;;;;;;;14.90;99.90;;;;;;5052626;28;19911;-80
2022/04/24 06:47:55;;;;;;;;;;;14.90;99.90;;;;;;5053908;28;19911;-80
2022/04/24 06:50:22;;;;;;;;;;;15.00;99.90;;;;;;5052582;28;19905;-78
2022/04/24 06:53:14;;;;;;;;;;;15.20;99.90;;;;;;5053743;28;20459;-80
2022/04/24 06:55:40;;;;;;;;;;;15.30;99.90;;;;;;5051732;28;19904;-80
2022/04/24 06:58:06;;;;;;;;;;;15.20;99.90;;;;;;5053695;28;19916;-80
2022/04/24 07:00:33;;;;;;;;;;;15.20;99.90;;;;;;5053837;28;20397;-79
2022/04/24 07:02:59;;;;;;;;;;;15.20;99.90;;;;;;5053911;28;20400;-80
2022/04/24 07:05:26;;;;;;;;;;;15.20;99.90;;;;;;5052371;28;19908;-81
2022/04/24 07:07:51;;;;;;;;;;;15.30;99.90;;;;;;5052322;28;20091;-80
2022/04/24 07:10:17;;;;;;;;;;;15.20;99.90;;;;;;5052248;28;19935;-78
2022/04/24 07:12:43;;;;;;;;;;;15.30;99.90;;;;;;5053503;28;20388;-79
2022/04/24 07:15:09;;;;;;;;;;;15.40;99.90;;;;;;5052300;28;19912;-81
2022/04/24 07:17:34;;;;;;;;;;;15.70;99.90;;;;;;5052212;28;19904;-80
2022/04/24 07:20:00;;;;;;;;;;;15.60;99.90;;;;;;5053475;28;19995;-80
2022/04/24 07:22:25;;;;;;;;;;;15.70;99.90;;;;;;5053636;28;20289;-80
2022/04/24 07:24:51;;;;;;;;;;;15.90;99.90;;;;;;5053446;28;19905;-80
2022/04/24 07:27:16;;;;;;;;;;;16.00;99.90;;;;;;5053546;28;19905;-79
2022/04/24 07:29:42;;;;;;;;;;;16.10;99.90;;;;;;5053336;28;19905;-79
2022/04/24 07:32:08;;;;;;;;;;;16.40;99.90;;;;;;5053357;28;19940;-79
2022/04/24 07:34:33;;;;;;;;;;;16.50;99.90;;;;;;5053248;28;20331;-80
2022/04/24 07:36:59;;;;;;;;;;;16.60;99.90;;;;;;5042684;28;20443;-80
2022/04/24 07:39:25;;;;;;;;;;;16.80;99.90;;;;;;5015692;28;19905;-79
2022/04/24 07:41:50;;;;;;;;;;;17.10;99.90;;;;;;5033480;28;19909;-80
2022/04/24 07:44:16;;;;;;;;;;;17.60;99.90;;;;;;5015565;28;19905;-79
2022/04/24 07:46:41;;;;;;;;;;;17.80;99.90;;;;;;5015582;28;19991;-80
2022/04/24 07:49:07;;;;;;;;;;;18.30;99.90;;;;;;5015541;28;19908;-80
2022/04/24 07:51:33;;;;;;;;;;;18.70;99.90;;;;;;5018885;28;19912;-80
2022/04/24 07:53:58;;;;;;;;;;;18.80;99.90;;;;;;5037495;28;19909;-79
2022/04/24 07:56:25;;;;;;;;;;;18.80;99.90;;;;;;5037488;28;19988;-80
2022/04/24 07:58:50;;;;;;;;;;;19.00;99.90;;;;;;5037094;28;19912;-80
2022/04/24 08:01:17;;;;;;;;;;;19.00;99.90;;;;;;5037157;28;19952;-79
2022/04/24 08:03:43;;;;;;;;;;;19.00;99.90;;;;;;5036970;28;19905;-80
2022/04/24 08:06:08;;;;;;;;;;;19.00;99.90;;;;;;5019176;28;19905;-80
2022/04/24 08:08:34;;;;;;;;;;;18.70;99.90;;;;;;5036855;28;20008;-79
2022/04/24 08:11:00;;;;;;;;;;;18.60;99.90;;;;;;5036707;28;19909;-80
2022/04/24 08:13:26;;;;;;;;;;;18.40;99.90;;;;;;5036693;28;19913;-80
2022/04/24 08:15:52;;;;;;;;;;;18.30;99.90;;;;;;5036762;28;19959;-79
2022/04/24 08:18:18;;;;;;;;;;;18.40;99.90;;;;;;5036805;28;19905;-81
2022/04/24 08:20:44;;;;;;;;;;;18.30;99.90;;;;;;5036601;28;20257;-80
2022/04/24 08:23:10;;;;;;;;;;;18.50;99.90;;;;;;5036658;28;19905;-81
2022/04/24 08:25:37;;;;;;;;;;;18.60;99.90;;;;;;5036631;28;19979;-80
2022/04/24 08:28:08;;;;;;;;;;;18.80;99.90;;;;;;5036696;28;19912;-81
2022/04/24 08:30:43;;;;;;;;;;;18.90;99.90;;;;;;5036703;28;19912;-80
2022/04/24 08:33:09;;;;;;;;;;;19.00;99.90;;;;;;5036708;28;19960;-81
2022/04/24 08:35:35;;;;;;;;;;;19.40;99.90;;;;;;5018627;28;19956;-78
2022/04/24 08:38:01;;;;;;;;;;;19.70;99.90;;;;;;5053075;28;20273;-80
2022/04/24 08:40:26;;;;;;;;;;;19.70;99.90;;;;;;5056309;28;19904;-81
2022/04/24 08:42:52;;;;;;;;;;;19.70;99.90;;;;;;5056175;28;19953;-80
2022/04/24 08:45:18;;;;;;;;;;;19.70;99.90;;;;;;5054914;28;19991;-80
2022/04/24 08:47:44;;;;;;;;;;;19.80;99.90;;;;;;5056149;28;20385;-80
2022/04/24 08:50:11;;;;;;;;;;;19.40;99.90;;;;;;5055946;28;20377;-80
2022/04/24 08:52:37;;;;;;;;;;;19.60;99.90;;;;;;5055954;28;19991;-80
2022/04/24 08:55:03;;;;;;;;;;;19.80;99.90;;;;;;5056016;28;20345;-80
2022/04/24 08:57:30;;;;;;;;;;;19.80;99.90;;;;;;5054514;28;19936;-80
2022/04/24 08:59:56;;;;;;;;;;;20.00;99.90;;;;;;5056140;28;19959;-81
2022/04/24 09:02:22;;;;;;;;;;;19.90;99.90;;;;;;5053253;28;19932;-80
2022/04/24 09:04:48;;;;;;;;;;;20.20;99.90;;;;;;5055792;28;19991;-80
2022/04/24 09:07:17;;;;;;;;;;;20.40;99.90;;;;;;5055908;28;19905;-80
2022/04/24 09:09:44;;;;;;;;;;;20.20;99.90;;;;;;5054398;28;20288;-80
2022/04/24 09:12:10;;;;;;;;;;;20.40;99.90;;;;;;5055593;28;19954;-80
2022/04/24 09:14:37;;;;;;;;;;;20.30;99.90;;;;;;5055564;28;19919;-81
2022/04/24 09:17:06;;;;;;;;;;;20.10;99.90;;;;;;5055752;28;19927;-80
2022/04/24 09:19:32;;;;;;;;;;;20.20;99.90;;;;;;5054245;28;19912;-79
2022/04/24 09:22:01;;;;;;;;;;;20.20;99.90;;;;;;5055682;28;19905;-80
2022/04/24 09:24:37;;;;;;;;;;;20.20;99.90;;;;;;5055520;28;19905;-79
2022/04/24 09:27:02;;;;;;;;;;;20.00;99.90;;;;;;5053871;28;19912;-81
2022/04/24 09:29:28;;;;;;;;;;;20.10;99.90;;;;;;5055406;28;19905;-80
2022/04/24 09:31:54;;;;;;;;;;;20.00;99.90;;;;;;5055423;28;20021;-80
2022/04/24 09:34:20;;;;;;;;;;;20.00;99.90;;;;;;5055108;28;19908;-79
2022/04/24 09:37:06;;;;;;;;;;;20.10;99.90;;;;;;5046164;28;19921;-80
2022/04/24 09:39:32;;;;;;;;;;;20.30;99.90;;;;;;5016952;28;19905;-80
2022/04/24 09:42:21;;;;;;;;;;;20.30;99.90;;;;;;5035133;28;19905;-80
2022/04/24 09:44:47;;;;;;;;;;;20.50;99.90;;;;;;5027025;28;19911;-80
2022/04/24 09:47:13;;;;;;;;;;;20.70;99.90;;;;;;5035152;28;19904;-80
2022/04/24 09:49:40;;;;;;;;;;;21.00;99.90;;;;;;5035132;28;19905;-80
2022/04/24 09:52:12;;;;;;;;;;;21.00;99.90;;;;;;5034899;28;19948;-79
2022/04/24 09:54:39;;;;;;;;;;;21.10;99.90;;;;;;5034987;28;20396;-81
2022/04/24 09:57:06;;;;;;;;;;;21.40;99.90;;;;;;5017103;28;20376;-80
2022/04/24 09:59:33;;;;;;;;;;;21.70;99.90;;;;;;5035027;28;19955;-80
2022/04/24 10:01:59;;;;;;;;;;;22.10;99.90;;;;;;5034783;28;19905;-81
2022/04/24 10:04:24;;;;;;;;;;;21.90;99.90;;;;;;5034701;28;20292;-79
2022/04/24 10:06:50;;;;;;;;;;;22.00;99.90;;;;;;5034648;28;19905;-78
2022/04/24 10:09:17;;;;;;;;;;;22.80;99.90;;;;;;5034999;28;19916;-80
2022/04/24 10:11:42;;;;;;;;;;;23.70;99.90;;;;;;5034648;28;19974;-80
2022/04/24 10:14:10;;;;;;;;;;;24.10;99.90;;;;;;5034115;28;20394;-79
2022/04/24 10:16:48;;;;;;;;;;;24.90;99.90;;;;;;5034571;28;19916;-80
2022/04/24 10:19:26;;;;;;;;;;;25.60;95.70;;;;;;5016534;28;19905;-81
2022/04/24 10:22:01;;;;;;;;;;;25.70;95.00;;;;;;5034379;28;19988;-80
2022/04/24 10:24:37;;;;;;;;;;;26.40;94.30;;;;;;5034410;28;19905;-81
2022/04/24 10:27:03;;;;;;;;;;;28.70;90.80;;;;;;5034481;28;19928;-81
2022/04/24 10:29:29;;;;;;;;;;;29.50;76.60;;;;;;5034269;28;20324;-81
2022/04/24 10:31:55;;;;;;;;;;;29.20;77.10;;;;;;5034365;28;19905;-81
2022/04/24 10:34:22;;;;;;;;;;;28.80;75.00;;;;;;5016382;28;19909;-80
2022/04/24 10:37:01;;;;;;;;;;;28.20;74.40;;;;;;5033906;28;19998;-80
2022/04/24 10:39:28;;;;;;;;;;;27.40;76.00;;;;;;5034185;28;19909;-80
2022/04/24 10:41:58;;;;;;;;;;;27.00;77.90;;;;;;5034027;28;20369;-80
2022/04/24 10:44:23;;;;;;;;;;;26.50;80.50;;;;;;5009648;28;20273;-80
2022/04/24 10:46:50;;;;;;;;;;;26.30;81.00;;;;;;5033141;28;19905;-82
2022/04/24 10:49:18;;;;;;;;;;;26.70;80.30;;;;;;5033137;28;19960;-83
2022/04/24 10:51:44;;;;;;;;;;;27.40;79.10;;;;;;5033432;28;20369;-81
2022/04/24 10:54:13;;;;;;;;;;;27.50;78.30;;;;;;5033424;28;20012;-80
2022/04/24 10:56:41;;;;;;;;;;;27.40;77.70;;;;;;5030487;28;19905;-80
2022/04/24 10:59:08;;;;;;;;;;;27.40;77.30;;;;;;5033366;28;19988;-81
2022/04/24 11:01:35;;;;;;;;;;;27.70;75.90;;;;;;5031628;28;19968;-82
2022/04/24 11:04:14;;;;;;;;;;;28.20;74.00;;;;;;5033292;28;19909;-79
2022/04/24 11:06:51;;;;;;;;;;;28.40;70.20;;;;;;5033447;28;19905;-80
2022/04/24 11:09:18;;;;;;;;;;;28.40;69.10;;;;;;5033152;28;20369;-80
2022/04/24 11:11:47;;;;;;;;;;;28.20;70.10;;;;;;5031503;28;19909;-80
2022/04/24 11:14:17;;;;;;;;;;;27.80;69.00;;;;;;5033267;28;19909;-81
2022/04/24 11:16:48;;;;;;;;;;;28.70;70.30;;;;;;5033393;28;20419;-82
2022/04/24 11:19:20;;;;;;;;;;;28.40;63.50;;;;;;5031920;28;19909;-81
2022/04/24 11:21:45;;;;;;;;;;;29.40;65.00;;;;;;5032565;28;19909;-82
2022/04/24 11:24:11;;;;;;;;;;;30.60;62.20;;;;;;5033364;28;19912;-81
2022/04/24 11:26:37;;;;;;;;;;;30.50;62.00;;;;;;5036912;28;20301;-81
2022/04/24 11:29:09;;;;;;;;;;;31.70;60.20;;;;;;5037199;28;19905;-80
2022/04/24 11:31:34;;;;;;;;;;;30.00;59.90;;;;;;5036803;28;19905;-79
2022/04/24 11:34:01;;;;;;;;;;;28.20;63.00;;;;;;5037285;28;19916;-81
2022/04/24 11:36:31;;;;;;;;;;;26.80;67.80;;;;;;5049306;28;20046;-80
2022/04/24 11:38:57;;;;;;;;;;;25.90;70.70;;;;;;5077180;28;19904;-81
2022/04/24 11:41:26;;;;;;;;;;;25.10;74.60;;;;;;5076488;28;19905;-81
2022/04/24 11:43:58;;;;;;;;;;;24.40;78.10;;;;;;5077060;28;20007;-79
2022/04/24 11:51:52;;;;;;;;;;;23.30;85.50;;;;;;5076375;28;20395;-80
2022/04/24 11:54:18;;;;;;;;;;;23.20;87.60;;;;;;5076708;28;19908;-81
2022/04/24 11:56:48;;;;;;;;;;;23.20;88.20;;;;;;5076757;28;19904;-81
2022/04/24 11:59:23;;;;;;;;;;;22.90;90.40;;;;;;5076933;28;19905;-81
2022/04/24 12:01:59;;;;;;;;;;;22.70;90.90;;;;;;5076382;28;19995;-81
2022/04/24 12:04:26;;;;;;;;;;;22.80;90.90;;;;;;5076470;28;19911;-81
2022/04/24 12:06:59;;;;;;;;;;;22.70;90.60;;;;;;5076603;28;20000;-80
2022/04/24 12:09:24;;;;;;;;;;;23.00;90.10;;;;;;5076621;28;19905;-80
2022/04/24 12:11:50;;;;;;;;;;;22.90;90.70;;;;;;5076001;28;19926;-80
2022/04/24 12:14:17;;;;;;;;;;;23.00;90.00;;;;;;5058333;28;19919;-81
2022/04/24 12:16:46;;;;;;;;;;;22.70;90.40;;;;;;5076384;28;19912;-80
2022/04/24 12:19:16;;;;;;;;;;;22.60;90.80;;;;;;5076302;28;19999;-79
2022/04/24 12:21:46;;;;;;;;;;;22.40;91.60;;;;;;5075846;28;19911;-80
2022/04/24 12:24:12;;;;;;;;;;;22.20;91.60;;;;;;5058281;28;20343;-80
2022/04/24 12:26:47;;;;;;;;;;;22.20;92.30;;;;;;5076186;28;19992;-80
2022/04/24 12:29:13;;;;;;;;;;;22.20;92.70;;;;;;5075825;28;19954;-81
2022/04/24 12:31:38;;;;;;;;;;;22.30;93.10;;;;;;5075785;28;19904;-80
2022/04/24 12:34:04;;;;;;;;;;;22.20;92.70;;;;;;5076032;28;19909;-80
2022/04/24 12:36:29;;;;;;;;;;;22.00;93.60;;;;;;5075532;28;19916;-80
2022/04/24 12:38:59;;;;;;;;;;;21.80;94.50;;;;;;5075979;28;19905;-80
2022/04/24 12:41:27;;;;;;;;;;;21.70;94.60;;;;;;5075401;28;20377;-80
2022/04/24 12:44:00;;;;;;;;;;;21.70;95.30;;;;;;5076030;28;19911;-80
2022/04/24 12:46:25;;;;;;;;;;;21.40;95.80;;;;;;5075766;28;19986;-80
2022/04/24 12:48:52;;;;;;;;;;;21.40;96.20;;;;;;5075697;28;20345;-80
2022/04/24 12:51:18;;;;;;;;;;;21.40;95.60;;;;;;5075485;28;19959;-80
2022/04/24 12:53:44;;;;;;;;;;;21.20;96.90;;;;;;5075336;28;20377;-81
2022/04/24 12:56:10;;;;;;;;;;;21.20;95.30;;;;;;5075655;28;19910;-80
2022/04/24 12:58:36;;;;;;;;;;;21.30;92.80;;;;;;5057651;28;20330;-80
2022/04/24 13:01:01;;;;;;;;;;;21.40;91.50;;;;;;5075369;28;19912;-80
2022/04/24 13:03:27;;;;;;;;;;;21.70;91.20;;;;;;5075441;28;19996;-79
2022/04/24 13:05:52;;;;;;;;;;;22.30;90.00;;;;;;5075481;28;19904;-79
2022/04/24 13:08:18;;;;;;;;;;;22.60;86.60;;;;;;5075435;28;19911;-80
2022/04/24 13:10:44;;;;;;;;;;;22.80;85.20;;;;;;5075306;28;19936;-80
2022/04/24 13:13:09;;;;;;;;;;;23.20;84.60;;;;;;5056828;28;19970;-81
2022/04/24 13:15:35;;;;;;;;;;;23.50;82.20;;;;;;5075271;28;20408;-78
2022/04/24 13:18:08;;;;;;;;;;;22.90;80.40;;;;;;5075365;28;20037;-78
2022/04/24 13:20:36;;;;;;;;;;;22.50;82.30;;;;;;5075271;28;20418;-79
2022/04/24 13:23:06;;;;;;;;;;;22.40;82.90;;;;;;5056767;28;20049;-79
2022/04/24 13:25:32;;;;;;;;;;;22.10;83.50;;;;;;5057029;28;20001;-80
2022/04/24 13:27:58;;;;;;;;;;;22.00;84.40;;;;;;5075132;28;19963;-80
2022/04/24 13:30:23;;;;;;;;;;;22.30;85.50;;;;;;5075008;28;20273;-80
2022/04/24 13:32:49;;;;;;;;;;;22.30;85.00;;;;;;5074451;28;19912;-80
2022/04/24 13:35:14;;;;;;;;;;;22.30;84.00;;;;;;5074937;28;19927;-79
2022/04/24 13:40:24;;;;;;;;;;;22.80;83.10;;;;;;5074517;28;20004;-79
2022/04/24 13:42:50;;;;;;;;;;;23.10;83.10;;;;;;5074329;28;20394;-80
2022/04/24 13:45:15;;;;;;;;;;;23.70;81.20;;;;;;5056741;28;19908;-79
2022/04/24 13:47:41;;;;;;;;;;;23.90;79.60;;;;;;5074041;28;19954;-78
2022/04/24 13:50:07;;;;;;;;;;;24.70;77.20;;;;;;5074587;28;19908;-81
2022/04/24 13:52:32;;;;;;;;;;;25.20;74.70;;;;;;5074134;28;20395;-80
2022/04/24 13:54:58;;;;;;;;;;;26.60;68.50;;;;;;5074462;28;19998;-80
2022/04/24 13:57:24;;;;;;;;;;;28.70;64.40;;;;;;5074517;28;20376;-79
2022/04/24 13:59:50;;;;;;;;;;;30.30;59.70;;;;;;5074420;28;19911;-82
2022/04/24 14:02:16;;;;;;;;;;;33.40;53.10;;;;;;5074145;28;19904;-81
2022/04/24 14:04:41;;;;;;;;;;;35.10;48.00;;;;;;5074088;28;19943;-80
2022/04/24 14:07:07;;;;;;;;;;;37.10;45.90;;;;;;5074360;28;20011;-82
2022/04/24 14:09:34;;;;;;;;;;;36.10;43.00;;;;;;5074211;28;19905;-80
2022/04/24 14:12:00;;;;;;;;;;;34.20;44.60;;;;;;5073782;28;19908;-80
2022/04/24 14:14:26;;;;;;;;;;;33.30;45.10;;;;;;5074089;28;19961;-80
2022/04/24 14:16:51;;;;;;;;;;;33.70;45.20;;;;;;5073884;28;20000;-80
2022/04/24 14:19:17;;;;;;;;;;;32.70;46.30;;;;;;5074224;28;19973;-80
2022/04/24 14:21:43;;;;;;;;;;;33.30;46.30;;;;;;5073675;28;19965;-80